sensor_id;sensor_type;location;lat;lon;timestamp;P1;durP1;ratioP1;P2;durP2;ratioP2
12665;SDS011;58531;59.050;17.416;2023-06-10T00:00:51;1.47;;;0.50;;
12665;SDS011;58531;59.050;17.416;2023-06-10T00:03:19;0.40;;;0.40;;
12665;SDS011;58531;59.050;17.416;2023-06-10T00:05:48;0.53;;;0.50;;
12665;SDS011;58531;59.050;17.416;2023-06-10T00:08:15;0.47;;;0.47;;
12665;SDS011;58531;59.050;17.416;2023-06-10T00:10:44;0.50;;;0.50;;
12665;SDS011;58531;59.050;17.416;2023-06-10T00:13:11;0.60;;;0.50;;
12665;SDS011;58531;59.050;17.416;2023-06-10T00:15:38;0.50;;;0.47;;
12665;SDS011;58531;59.050;17.416;2023-06-10T00:18:05;0.60;;;0.50;;
12665;SDS011;58531;59.050;17.416;2023-06-10T00:20:36;1.00;;;0.50;;
12665;SDS011;58531;59.050;17.416;2023-06-10T00:23:04;1.23;;;0.40;;
12665;SDS011;58531;59.050;17.416;2023-06-10T00:25:33;0.40;;;0.40;;
12665;SDS011;58531;59.050;17.416;2023-06-10T00:28:00;1.00;;;0.60;;
12665;SDS011;58531;59.050;17.416;2023-06-10T00:30:27;0.60;;;0.60;;
12665;SDS011;58531;59.050;17.416;2023-06-10T00:32:54;0.70;;;0.60;;
12665;SDS011;58531;59.050;17.416;2023-06-10T00:35:20;0.50;;;0.47;;
12665;SDS011;58531;59.050;17.416;2023-06-10T00:37:49;0.60;;;0.60;;
12665;SDS011;58531;59.050;17.416;2023-06-10T00:40:15;1.50;;;0.53;;
12665;SDS011;58531;59.050;17.416;2023-06-10T00:42:43;0.80;;;0.60;;
12665;SDS011;58531;59.050;17.416;2023-06-10T00:45:10;0.53;;;0.47;;
12665;SDS011;58531;59.050;17.416;2023-06-10T00:47:37;0.50;;;0.50;;
12665;SDS011;58531;59.050;17.416;2023-06-10T00:50:05;1.13;;;0.47;;
12665;SDS011;58531;59.050;17.416;2023-06-10T00:52:32;0.67;;;0.60;;
12665;SDS011;58531;59.050;17.416;2023-06-10T00:55:02;1.90;;;0.77;;
12665;SDS011;58531;59.050;17.416;2023-06-10T00:57:30;0.50;;;0.50;;
12665;SDS011;58531;59.050;17.416;2023-06-10T00:59:57;0.63;;;0.60;;
12665;SDS011;58531;59.050;17.416;2023-06-10T01:02:24;0.63;;;0.60;;
12665;SDS011;58531;59.050;17.416;2023-06-10T01:04:51;0.70;;;0.60;;
12665;SDS011;58531;59.050;17.416;2023-06-10T01:07:20;0.53;;;0.53;;
12665;SDS011;58531;59.050;17.416;2023-06-10T01:09:53;0.50;;;0.50;;
12665;SDS011;58531;59.050;17.416;2023-06-10T01:12:29;2.10;;;0.60;;
12665;SDS011;58531;59.050;17.416;2023-06-10T01:15:00;0.50;;;0.50;;
12665;SDS011;58531;59.050;17.416;2023-06-10T01:17:28;1.50;;;0.57;;
12665;SDS011;58531;59.050;17.416;2023-06-10T01:19:56;0.87;;;0.63;;
12665;SDS011;58531;59.050;17.416;2023-06-10T01:22:25;0.70;;;0.60;;
12665;SDS011;58531;59.050;17.416;2023-06-10T01:24:53;0.80;;;0.70;;
12665;SDS011;58531;59.050;17.416;2023-06-10T01:27:24;1.87;;;0.80;;
12665;SDS011;58531;59.050;17.416;2023-06-10T01:29:57;0.77;;;0.70;;
12665;SDS011;58531;59.050;17.416;2023-06-10T01:32:29;0.70;;;0.63;;
12665;SDS011;58531;59.050;17.416;2023-06-10T01:35:01;0.67;;;0.67;;
12665;SDS011;58531;59.050;17.416;2023-06-10T01:37:32;1.13;;;0.70;;
12665;SDS011;58531;59.050;17.416;2023-06-10T01:40:00;1.80;;;1.00;;
12665;SDS011;58531;59.050;17.416;2023-06-10T01:42:31;0.80;;;0.80;;
12665;SDS011;58531;59.050;17.416;2023-06-10T01:44:58;1.30;;;0.70;;
12665;SDS011;58531;59.050;17.416;2023-06-10T01:47:25;0.90;;;0.70;;
12665;SDS011;58531;59.050;17.416;2023-06-10T01:49:52;1.73;;;0.80;;
12665;SDS011;58531;59.050;17.416;2023-06-10T01:52:18;0.80;;;0.80;;
12665;SDS011;58531;59.050;17.416;2023-06-10T01:54:47;0.60;;;0.60;;
12665;SDS011;58531;59.050;17.416;2023-06-10T01:57:13;1.03;;;0.60;;
12665;SDS011;58531;59.050;17.416;2023-06-10T01:59:40;0.60;;;0.50;;
12665;SDS011;58531;59.050;17.416;2023-06-10T02:02:09;0.80;;;0.60;;
12665;SDS011;58531;59.050;17.416;2023-06-10T02:04:36;0.70;;;0.53;;
12665;SDS011;58531;59.050;17.416;2023-06-10T02:07:03;2.80;;;0.70;;
12665;SDS011;58531;59.050;17.416;2023-06-10T02:09:31;0.90;;;0.50;;
12665;SDS011;58531;59.050;17.416;2023-06-10T02:12:01;0.40;;;0.40;;
12665;SDS011;58531;59.050;17.416;2023-06-10T02:14:28;0.80;;;0.70;;
12665;SDS011;58531;59.050;17.416;2023-06-10T02:16:55;0.77;;;0.60;;
12665;SDS011;58531;59.050;17.416;2023-06-10T02:19:22;0.70;;;0.57;;
12665;SDS011;58531;59.050;17.416;2023-06-10T02:21:50;0.90;;;0.77;;
12665;SDS011;58531;59.050;17.416;2023-06-10T02:24:17;0.60;;;0.60;;
12665;SDS011;58531;59.050;17.416;2023-06-10T02:26:44;0.93;;;0.60;;
12665;SDS011;58531;59.050;17.416;2023-06-10T02:29:14;0.57;;;0.57;;
12665;SDS011;58531;59.050;17.416;2023-06-10T02:31:41;0.70;;;0.60;;
12665;SDS011;58531;59.050;17.416;2023-06-10T02:34:08;2.53;;;0.60;;
12665;SDS011;58531;59.050;17.416;2023-06-10T02:36:35;0.60;;;0.60;;
12665;SDS011;58531;59.050;17.416;2023-06-10T02:39:02;0.77;;;0.63;;
12665;SDS011;58531;59.050;17.416;2023-06-10T02:41:29;1.27;;;0.70;;
12665;SDS011;58531;59.050;17.416;2023-06-10T02:43:56;1.73;;;0.80;;
12665;SDS011;58531;59.050;17.416;2023-06-10T02:46:24;2.17;;;0.60;;
12665;SDS011;58531;59.050;17.416;2023-06-10T02:48:53;0.60;;;0.60;;
12665;SDS011;58531;59.050;17.416;2023-06-10T02:51:20;0.90;;;0.80;;
12665;SDS011;58531;59.050;17.416;2023-06-10T02:53:48;0.60;;;0.50;;
12665;SDS011;58531;59.050;17.416;2023-06-10T02:56:16;0.80;;;0.50;;
12665;SDS011;58531;59.050;17.416;2023-06-10T02:58:43;0.67;;;0.67;;
12665;SDS011;58531;59.050;17.416;2023-06-10T03:01:10;0.90;;;0.70;;
12665;SDS011;58531;59.050;17.416;2023-06-10T03:03:39;0.87;;;0.60;;
12665;SDS011;58531;59.050;17.416;2023-06-10T03:06:07;0.97;;;0.80;;
12665;SDS011;58531;59.050;17.416;2023-06-10T03:08:35;1.33;;;1.20;;
12665;SDS011;58531;59.050;17.416;2023-06-10T03:11:02;12.37;;;8.63;;
12665;SDS011;58531;59.050;17.416;2023-06-10T03:13:29;11.70;;;8.07;;
12665;SDS011;58531;59.050;17.416;2023-06-10T03:15:56;13.67;;;8.90;;
12665;SDS011;58531;59.050;17.416;2023-06-10T03:18:25;1.00;;;0.90;;
12665;SDS011;58531;59.050;17.416;2023-06-10T03:20:54;6.80;;;1.80;;
12665;SDS011;58531;59.050;17.416;2023-06-10T03:23:21;2.70;;;1.80;;
12665;SDS011;58531;59.050;17.416;2023-06-10T03:25:48;5.13;;;2.83;;
12665;SDS011;58531;59.050;17.416;2023-06-10T03:28:15;2.73;;;1.50;;
12665;SDS011;58531;59.050;17.416;2023-06-10T03:30:42;1.10;;;1.00;;
12665;SDS011;58531;59.050;17.416;2023-06-10T03:33:09;0.60;;;0.60;;
12665;SDS011;58531;59.050;17.416;2023-06-10T03:35:36;0.50;;;0.50;;
12665;SDS011;58531;59.050;17.416;2023-06-10T03:38:04;0.70;;;0.60;;
12665;SDS011;58531;59.050;17.416;2023-06-10T03:40:31;0.60;;;0.57;;
12665;SDS011;58531;59.050;17.416;2023-06-10T03:42:58;0.60;;;0.60;;
12665;SDS011;58531;59.050;17.416;2023-06-10T03:45:25;0.77;;;0.70;;
12665;SDS011;58531;59.050;17.416;2023-06-10T03:47:53;4.43;;;0.60;;
12665;SDS011;58531;59.050;17.416;2023-06-10T03:50:20;0.50;;;0.50;;
12665;SDS011;58531;59.050;17.416;2023-06-10T03:52:48;0.63;;;0.60;;
12665;SDS011;58531;59.050;17.416;2023-06-10T03:55:17;1.13;;;0.77;;
12665;SDS011;58531;59.050;17.416;2023-06-10T03:57:46;0.80;;;0.70;;
12665;SDS011;58531;59.050;17.416;2023-06-10T04:00:14;0.80;;;0.73;;
12665;SDS011;58531;59.050;17.416;2023-06-10T04:02:42;1.73;;;0.70;;
12665;SDS011;58531;59.050;17.416;2023-06-10T04:05:13;0.93;;;0.57;;
12665;SDS011;58531;59.050;17.416;2023-06-10T04:07:40;0.63;;;0.60;;
12665;SDS011;58531;59.050;17.416;2023-06-10T04:10:09;0.67;;;0.60;;
12665;SDS011;58531;59.050;17.416;2023-06-10T04:12:37;0.67;;;0.60;;
12665;SDS011;58531;59.050;17.416;2023-06-10T04:15:05;0.50;;;0.50;;
12665;SDS011;58531;59.050;17.416;2023-06-10T04:17:33;0.70;;;0.70;;
12665;SDS011;58531;59.050;17.416;2023-06-10T04:20:00;0.73;;;0.70;;
12665;SDS011;58531;59.050;17.416;2023-06-10T04:22:29;0.60;;;0.60;;
12665;SDS011;58531;59.050;17.416;2023-06-10T04:24:56;1.00;;;0.60;;
12665;SDS011;58531;59.050;17.416;2023-06-10T04:27:22;0.93;;;0.50;;
12665;SDS011;58531;59.050;17.416;2023-06-10T04:29:52;0.53;;;0.50;;
12665;SDS011;58531;59.050;17.416;2023-06-10T04:32:18;3.83;;;1.13;;
12665;SDS011;58531;59.050;17.416;2023-06-10T04:34:45;1.10;;;0.70;;
12665;SDS011;58531;59.050;17.416;2023-06-10T04:37:12;0.97;;;0.70;;
12665;SDS011;58531;59.050;17.416;2023-06-10T04:39:39;0.80;;;0.67;;
12665;SDS011;58531;59.050;17.416;2023-06-10T04:42:07;0.70;;;0.70;;
12665;SDS011;58531;59.050;17.416;2023-06-10T04:44:34;1.27;;;0.60;;
12665;SDS011;58531;59.050;17.416;2023-06-10T04:47:02;1.27;;;0.77;;
12665;SDS011;58531;59.050;17.416;2023-06-10T04:49:29;1.33;;;0.50;;
12665;SDS011;58531;59.050;17.416;2023-06-10T04:51:56;0.50;;;0.50;;
12665;SDS011;58531;59.050;17.416;2023-06-10T04:54:25;1.40;;;0.70;;
12665;SDS011;58531;59.050;17.416;2023-06-10T04:56:51;0.50;;;0.50;;
12665;SDS011;58531;59.050;17.416;2023-06-10T04:59:19;0.40;;;0.40;;
12665;SDS011;58531;59.050;17.416;2023-06-10T05:01:46;0.63;;;0.50;;
12665;SDS011;58531;59.050;17.416;2023-06-10T05:04:14;0.40;;;0.40;;
12665;SDS011;58531;59.050;17.416;2023-06-10T05:06:41;0.60;;;0.60;;
12665;SDS011;58531;59.050;17.416;2023-06-10T05:09:09;0.87;;;0.60;;
12665;SDS011;58531;59.050;17.416;2023-06-10T05:11:36;0.60;;;0.60;;
12665;SDS011;58531;59.050;17.416;2023-06-10T05:14:03;0.53;;;0.53;;
12665;SDS011;58531;59.050;17.416;2023-06-10T05:16:30;0.50;;;0.50;;
12665;SDS011;58531;59.050;17.416;2023-06-10T05:18:57;1.77;;;0.50;;
12665;SDS011;58531;59.050;17.416;2023-06-10T05:21:25;0.50;;;0.50;;
12665;SDS011;58531;59.050;17.416;2023-06-10T05:23:52;0.63;;;0.63;;
12665;SDS011;58531;59.050;17.416;2023-06-10T05:26:18;0.60;;;0.60;;
12665;SDS011;58531;59.050;17.416;2023-06-10T05:28:45;0.80;;;0.70;;
12665;SDS011;58531;59.050;17.416;2023-06-10T05:31:12;0.70;;;0.70;;
12665;SDS011;58531;59.050;17.416;2023-06-10T05:33:39;0.57;;;0.57;;
12665;SDS011;58531;59.050;17.416;2023-06-10T05:36:06;0.80;;;0.80;;
12665;SDS011;58531;59.050;17.416;2023-06-10T05:38:34;0.80;;;0.80;;
12665;SDS011;58531;59.050;17.416;2023-06-10T05:41:01;1.30;;;1.10;;
12665;SDS011;58531;59.050;17.416;2023-06-10T05:43:28;0.70;;;0.70;;
12665;SDS011;58531;59.050;17.416;2023-06-10T05:45:55;0.90;;;0.73;;
12665;SDS011;58531;59.050;17.416;2023-06-10T05:48:22;0.60;;;0.60;;
12665;SDS011;58531;59.050;17.416;2023-06-10T05:50:49;1.00;;;0.80;;
12665;SDS011;58531;59.050;17.416;2023-06-10T05:53:16;0.97;;;0.97;;
12665;SDS011;58531;59.050;17.416;2023-06-10T05:55:44;0.63;;;0.63;;
12665;SDS011;58531;59.050;17.416;2023-06-10T05:58:12;0.80;;;0.70;;
12665;SDS011;58531;59.050;17.416;2023-06-10T06:00:39;0.63;;;0.63;;
12665;SDS011;58531;59.050;17.416;2023-06-10T06:03:07;1.37;;;1.00;;
12665;SDS011;58531;59.050;17.416;2023-06-10T06:05:34;0.80;;;0.70;;
12665;SDS011;58531;59.050;17.416;2023-06-10T06:08:03;0.80;;;0.80;;
12665;SDS011;58531;59.050;17.416;2023-06-10T06:10:30;0.63;;;0.63;;
12665;SDS011;58531;59.050;17.416;2023-06-10T06:12:59;0.80;;;0.80;;
12665;SDS011;58531;59.050;17.416;2023-06-10T06:15:26;0.70;;;0.70;;
12665;SDS011;58531;59.050;17.416;2023-06-10T06:17:53;0.70;;;0.70;;
12665;SDS011;58531;59.050;17.416;2023-06-10T06:20:20;0.87;;;0.87;;
12665;SDS011;58531;59.050;17.416;2023-06-10T06:22:48;0.80;;;0.80;;
12665;SDS011;58531;59.050;17.416;2023-06-10T06:25:15;0.80;;;0.80;;
12665;SDS011;58531;59.050;17.416;2023-06-10T06:27:42;0.90;;;0.90;;
12665;SDS011;58531;59.050;17.416;2023-06-10T06:30:11;1.20;;;0.90;;
12665;SDS011;58531;59.050;17.416;2023-06-10T06:32:38;0.83;;;0.83;;
12665;SDS011;58531;59.050;17.416;2023-06-10T06:35:05;1.07;;;0.97;;
12665;SDS011;58531;59.050;17.416;2023-06-10T06:37:33;1.13;;;1.13;;
12665;SDS011;58531;59.050;17.416;2023-06-10T06:40:00;1.53;;;0.83;;
12665;SDS011;58531;59.050;17.416;2023-06-10T06:42:27;1.10;;;1.00;;
12665;SDS011;58531;59.050;17.416;2023-06-10T06:44:54;0.70;;;0.70;;
12665;SDS011;58531;59.050;17.416;2023-06-10T06:47:22;1.17;;;0.77;;
12665;SDS011;58531;59.050;17.416;2023-06-10T06:49:49;0.87;;;0.87;;
12665;SDS011;58531;59.050;17.416;2023-06-10T06:52:16;1.10;;;0.77;;
12665;SDS011;58531;59.050;17.416;2023-06-10T06:54:44;1.00;;;1.00;;
12665;SDS011;58531;59.050;17.416;2023-06-10T06:57:10;0.70;;;0.70;;
12665;SDS011;58531;59.050;17.416;2023-06-10T06:59:37;1.33;;;1.10;;
12665;SDS011;58531;59.050;17.416;2023-06-10T07:02:04;0.90;;;0.80;;
12665;SDS011;58531;59.050;17.416;2023-06-10T07:04:33;0.80;;;0.80;;
12665;SDS011;58531;59.050;17.416;2023-06-10T07:07:00;0.80;;;0.80;;
12665;SDS011;58531;59.050;17.416;2023-06-10T07:09:27;0.80;;;0.80;;
12665;SDS011;58531;59.050;17.416;2023-06-10T07:11:54;0.80;;;0.80;;
12665;SDS011;58531;59.050;17.416;2023-06-10T07:14:21;0.77;;;0.77;;
12665;SDS011;58531;59.050;17.416;2023-06-10T07:16:48;1.30;;;1.00;;
12665;SDS011;58531;59.050;17.416;2023-06-10T07:19:15;0.70;;;0.70;;
12665;SDS011;58531;59.050;17.416;2023-06-10T07:21:43;0.80;;;0.80;;
12665;SDS011;58531;59.050;17.416;2023-06-10T07:24:10;0.87;;;0.87;;
12665;SDS011;58531;59.050;17.416;2023-06-10T07:26:37;0.83;;;0.83;;
12665;SDS011;58531;59.050;17.416;2023-06-10T07:29:03;0.67;;;0.67;;
12665;SDS011;58531;59.050;17.416;2023-06-10T07:31:30;1.57;;;0.80;;
12665;SDS011;58531;59.050;17.416;2023-06-10T07:33:57;0.90;;;0.90;;
12665;SDS011;58531;59.050;17.416;2023-06-10T07:36:24;0.77;;;0.77;;
12665;SDS011;58531;59.050;17.416;2023-06-10T07:38:53;0.70;;;0.70;;
12665;SDS011;58531;59.050;17.416;2023-06-10T07:41:22;0.70;;;0.70;;
12665;SDS011;58531;59.050;17.416;2023-06-10T07:43:50;0.80;;;0.80;;
12665;SDS011;58531;59.050;17.416;2023-06-10T07:46:19;0.80;;;0.80;;
12665;SDS011;58531;59.050;17.416;2023-06-10T07:48:46;1.57;;;0.70;;
12665;SDS011;58531;59.050;17.416;2023-06-10T07:51:14;0.93;;;0.80;;
12665;SDS011;58531;59.050;17.416;2023-06-10T07:53:42;0.70;;;0.70;;
12665;SDS011;58531;59.050;17.416;2023-06-10T07:56:10;0.80;;;0.80;;
12665;SDS011;58531;59.050;17.416;2023-06-10T07:58:37;1.53;;;0.80;;
12665;SDS011;58531;59.050;17.416;2023-06-10T08:01:04;1.60;;;0.90;;
12665;SDS011;58531;59.050;17.416;2023-06-10T08:03:31;0.60;;;0.60;;
12665;SDS011;58531;59.050;17.416;2023-06-10T08:05:58;0.60;;;0.60;;
12665;SDS011;58531;59.050;17.416;2023-06-10T08:08:25;1.57;;;0.90;;
12665;SDS011;58531;59.050;17.416;2023-06-10T08:10:51;0.90;;;0.90;;
12665;SDS011;58531;59.050;17.416;2023-06-10T08:13:20;0.80;;;0.80;;
12665;SDS011;58531;59.050;17.416;2023-06-10T08:15:47;0.60;;;0.60;;
12665;SDS011;58531;59.050;17.416;2023-06-10T08:18:15;0.80;;;0.80;;
12665;SDS011;58531;59.050;17.416;2023-06-10T08:20:43;0.60;;;0.60;;
12665;SDS011;58531;59.050;17.416;2023-06-10T08:23:09;0.67;;;0.67;;
12665;SDS011;58531;59.050;17.416;2023-06-10T08:25:36;2.93;;;0.70;;
12665;SDS011;58531;59.050;17.416;2023-06-10T08:28:03;0.50;;;0.50;;
12665;SDS011;58531;59.050;17.416;2023-06-10T08:30:31;0.60;;;0.60;;
12665;SDS011;58531;59.050;17.416;2023-06-10T08:32:59;1.27;;;0.70;;
12665;SDS011;58531;59.050;17.416;2023-06-10T08:35:26;1.67;;;0.63;;
12665;SDS011;58531;59.050;17.416;2023-06-10T08:37:53;0.67;;;0.67;;
12665;SDS011;58531;59.050;17.416;2023-06-10T08:40:20;0.50;;;0.50;;
12665;SDS011;58531;59.050;17.416;2023-06-10T08:42:48;0.60;;;0.60;;
12665;SDS011;58531;59.050;17.416;2023-06-10T08:45:20;0.67;;;0.67;;
12665;SDS011;58531;59.050;17.416;2023-06-10T08:47:51;0.50;;;0.50;;
12665;SDS011;58531;59.050;17.416;2023-06-10T08:50:20;0.80;;;0.40;;
12665;SDS011;58531;59.050;17.416;2023-06-10T08:52:48;0.50;;;0.50;;
12665;SDS011;58531;59.050;17.416;2023-06-10T08:55:18;0.93;;;0.70;;
12665;SDS011;58531;59.050;17.416;2023-06-10T08:57:51;0.57;;;0.57;;
12665;SDS011;58531;59.050;17.416;2023-06-10T09:00:19;0.60;;;0.60;;
12665;SDS011;58531;59.050;17.416;2023-06-10T09:02:46;0.90;;;0.60;;
12665;SDS011;58531;59.050;17.416;2023-06-10T09:05:14;2.20;;;0.70;;
12665;SDS011;58531;59.050;17.416;2023-06-10T09:07:42;0.70;;;0.70;;
12665;SDS011;58531;59.050;17.416;2023-06-10T09:10:10;0.50;;;0.50;;
12665;SDS011;58531;59.050;17.416;2023-06-10T09:12:38;1.03;;;0.80;;
12665;SDS011;58531;59.050;17.416;2023-06-10T09:15:05;0.53;;;0.50;;
12665;SDS011;58531;59.050;17.416;2023-06-10T09:17:33;0.70;;;0.70;;
12665;SDS011;58531;59.050;17.416;2023-06-10T09:20:01;0.70;;;0.70;;
12665;SDS011;58531;59.050;17.416;2023-06-10T09:22:29;1.67;;;0.50;;
12665;SDS011;58531;59.050;17.416;2023-06-10T09:25:02;0.60;;;0.60;;
12665;SDS011;58531;59.050;17.416;2023-06-10T09:27:30;0.50;;;0.50;;
12665;SDS011;58531;59.050;17.416;2023-06-10T09:29:58;0.50;;;0.50;;
12665;SDS011;58531;59.050;17.416;2023-06-10T09:32:25;0.50;;;0.50;;
12665;SDS011;58531;59.050;17.416;2023-06-10T09:34:53;0.60;;;0.60;;
12665;SDS011;58531;59.050;17.416;2023-06-10T09:37:20;0.60;;;0.60;;
12665;SDS011;58531;59.050;17.416;2023-06-10T09:40:01;0.50;;;0.50;;
12665;SDS011;58531;59.050;17.416;2023-06-10T09:42:32;0.60;;;0.60;;
12665;SDS011;58531;59.050;17.416;2023-06-10T09:45:00;0.63;;;0.60;;
12665;SDS011;58531;59.050;17.416;2023-06-10T09:47:27;1.30;;;0.70;;
12665;SDS011;58531;59.050;17.416;2023-06-10T09:49:54;0.50;;;0.50;;
12665;SDS011;58531;59.050;17.416;2023-06-10T09:52:21;0.60;;;0.60;;
12665;SDS011;58531;59.050;17.416;2023-06-10T09:54:49;0.87;;;0.50;;
12665;SDS011;58531;59.050;17.416;2023-06-10T09:57:18;0.87;;;0.50;;
12665;SDS011;58531;59.050;17.416;2023-06-10T09:59:46;1.00;;;0.60;;
12665;SDS011;58531;59.050;17.416;2023-06-10T10:02:13;0.60;;;0.60;;
12665;SDS011;58531;59.050;17.416;2023-06-10T10:04:41;0.63;;;0.63;;
12665;SDS011;58531;59.050;17.416;2023-06-10T10:07:08;0.93;;;0.83;;
12665;SDS011;58531;59.050;17.416;2023-06-10T10:09:35;0.60;;;0.60;;
12665;SDS011;58531;59.050;17.416;2023-06-10T10:12:03;0.80;;;0.60;;
12665;SDS011;58531;59.050;17.416;2023-06-10T10:14:38;0.60;;;0.57;;
12665;SDS011;58531;59.050;17.416;2023-06-10T10:17:07;0.50;;;0.50;;
12665;SDS011;58531;59.050;17.416;2023-06-10T10:19:37;0.53;;;0.50;;
12665;SDS011;58531;59.050;17.416;2023-06-10T10:22:11;0.60;;;0.60;;
12665;SDS011;58531;59.050;17.416;2023-06-10T10:24:46;1.00;;;0.80;;
12665;SDS011;58531;59.050;17.416;2023-06-10T10:27:17;0.60;;;0.60;;
12665;SDS011;58531;59.050;17.416;2023-06-10T10:29:49;0.70;;;0.70;;
12665;SDS011;58531;59.050;17.416;2023-06-10T10:32:19;0.50;;;0.50;;
12665;SDS011;58531;59.050;17.416;2023-06-10T10:34:53;0.60;;;0.60;;
12665;SDS011;58531;59.050;17.416;2023-06-10T10:37:30;1.03;;;0.60;;
12665;SDS011;58531;59.050;17.416;2023-06-10T10:39:57;0.77;;;0.60;;
12665;SDS011;58531;59.050;17.416;2023-06-10T10:42:25;0.60;;;0.60;;
12665;SDS011;58531;59.050;17.416;2023-06-10T10:44:54;0.80;;;0.67;;
12665;SDS011;58531;59.050;17.416;2023-06-10T10:47:22;1.50;;;0.53;;
12665;SDS011;58531;59.050;17.416;2023-06-10T10:49:55;0.50;;;0.50;;
12665;SDS011;58531;59.050;17.416;2023-06-10T10:52:24;3.80;;;0.70;;
12665;SDS011;58531;59.050;17.416;2023-06-10T10:54:52;0.63;;;0.60;;
12665;SDS011;58531;59.050;17.416;2023-06-10T10:57:20;0.60;;;0.60;;
12665;SDS011;58531;59.050;17.416;2023-06-10T10:59:52;0.87;;;0.70;;
12665;SDS011;58531;59.050;17.416;2023-06-10T11:02:34;0.50;;;0.50;;
12665;SDS011;58531;59.050;17.416;2023-06-10T11:05:04;0.50;;;0.50;;
12665;SDS011;58531;59.050;17.416;2023-06-10T11:07:31;0.50;;;0.50;;
12665;SDS011;58531;59.050;17.416;2023-06-10T11:09:59;1.73;;;0.60;;
12665;SDS011;58531;59.050;17.416;2023-06-10T11:12:40;0.57;;;0.57;;
12665;SDS011;58531;59.050;17.416;2023-06-10T11:15:09;1.30;;;0.60;;
12665;SDS011;58531;59.050;17.416;2023-06-10T11:17:36;0.50;;;0.50;;
12665;SDS011;58531;59.050;17.416;2023-06-10T11:20:03;0.70;;;0.70;;
12665;SDS011;58531;59.050;17.416;2023-06-10T11:22:31;0.60;;;0.60;;
12665;SDS011;58531;59.050;17.416;2023-06-10T11:24:57;0.60;;;0.60;;
12665;SDS011;58531;59.050;17.416;2023-06-10T11:27:24;0.73;;;0.67;;
12665;SDS011;58531;59.050;17.416;2023-06-10T11:29:58;0.50;;;0.50;;
12665;SDS011;58531;59.050;17.416;2023-06-10T11:32:45;0.50;;;0.50;;
12665;SDS011;58531;59.050;17.416;2023-06-10T11:35:18;2.87;;;0.80;;
12665;SDS011;58531;59.050;17.416;2023-06-10T11:37:46;0.60;;;0.60;;
12665;SDS011;58531;59.050;17.416;2023-06-10T11:40:14;0.70;;;0.70;;
12665;SDS011;58531;59.050;17.416;2023-06-10T11:42:41;0.87;;;0.70;;
12665;SDS011;58531;59.050;17.416;2023-06-10T11:45:09;0.60;;;0.50;;
12665;SDS011;58531;59.050;17.416;2023-06-10T11:47:36;0.60;;;0.60;;
12665;SDS011;58531;59.050;17.416;2023-06-10T11:50:05;0.57;;;0.57;;
12665;SDS011;58531;59.050;17.416;2023-06-10T11:52:32;0.93;;;0.80;;
12665;SDS011;58531;59.050;17.416;2023-06-10T11:55:03;0.57;;;0.57;;
12665;SDS011;58531;59.050;17.416;2023-06-10T11:57:33;0.70;;;0.70;;
12665;SDS011;58531;59.050;17.416;2023-06-10T12:00:03;2.03;;;0.80;;
12665;SDS011;58531;59.050;17.416;2023-06-10T12:02:32;0.83;;;0.50;;
12665;SDS011;58531;59.050;17.416;2023-06-10T12:05:10;0.50;;;0.50;;
12665;SDS011;58531;59.050;17.416;2023-06-10T12:07:38;0.70;;;0.50;;
12665;SDS011;58531;59.050;17.416;2023-06-10T12:10:05;2.23;;;0.60;;
12665;SDS011;58531;59.050;17.416;2023-06-10T12:12:34;1.43;;;0.60;;
12665;SDS011;58531;59.050;17.416;2023-06-10T12:15:01;0.80;;;0.73;;
12665;SDS011;58531;59.050;17.416;2023-06-10T12:17:37;0.67;;;0.63;;
12665;SDS011;58531;59.050;17.416;2023-06-10T12:20:05;0.70;;;0.60;;
12665;SDS011;58531;59.050;17.416;2023-06-10T12:22:38;0.60;;;0.60;;
12665;SDS011;58531;59.050;17.416;2023-06-10T12:25:06;1.80;;;0.60;;
12665;SDS011;58531;59.050;17.416;2023-06-10T12:27:34;0.60;;;0.60;;
12665;SDS011;58531;59.050;17.416;2023-06-10T12:30:03;0.40;;;0.40;;
12665;SDS011;58531;59.050;17.416;2023-06-10T12:32:35;1.47;;;0.53;;
12665;SDS011;58531;59.050;17.416;2023-06-10T12:35:03;0.87;;;0.83;;
12665;SDS011;58531;59.050;17.416;2023-06-10T12:37:30;0.60;;;0.60;;
12665;SDS011;58531;59.050;17.416;2023-06-10T12:40:00;0.60;;;0.60;;
12665;SDS011;58531;59.050;17.416;2023-06-10T12:42:28;0.53;;;0.53;;
12665;SDS011;58531;59.050;17.416;2023-06-10T12:44:56;0.70;;;0.60;;
12665;SDS011;58531;59.050;17.416;2023-06-10T12:47:29;0.60;;;0.60;;
12665;SDS011;58531;59.050;17.416;2023-06-10T12:49:58;0.43;;;0.43;;
12665;SDS011;58531;59.050;17.416;2023-06-10T12:52:25;0.60;;;0.50;;
12665;SDS011;58531;59.050;17.416;2023-06-10T12:54:52;1.27;;;0.60;;
12665;SDS011;58531;59.050;17.416;2023-06-10T12:57:21;0.87;;;0.70;;
12665;SDS011;58531;59.050;17.416;2023-06-10T12:59:48;1.00;;;0.70;;
12665;SDS011;58531;59.050;17.416;2023-06-10T13:02:17;0.60;;;0.60;;
12665;SDS011;58531;59.050;17.416;2023-06-10T13:04:45;0.83;;;0.60;;
12665;SDS011;58531;59.050;17.416;2023-06-10T13:07:12;0.63;;;0.60;;
12665;SDS011;58531;59.050;17.416;2023-06-10T13:09:39;5.90;;;0.80;;
12665;SDS011;58531;59.050;17.416;2023-06-10T13:12:06;0.90;;;0.60;;
12665;SDS011;58531;59.050;17.416;2023-06-10T13:14:36;0.53;;;0.53;;
12665;SDS011;58531;59.050;17.416;2023-06-10T13:17:04;0.67;;;0.60;;
12665;SDS011;58531;59.050;17.416;2023-06-10T13:19:31;0.60;;;0.60;;
12665;SDS011;58531;59.050;17.416;2023-06-10T13:21:58;0.63;;;0.63;;
12665;SDS011;58531;59.050;17.416;2023-06-10T13:24:26;0.60;;;0.60;;
12665;SDS011;58531;59.050;17.416;2023-06-10T13:26:53;0.90;;;0.60;;
12665;SDS011;58531;59.050;17.416;2023-06-10T13:29:21;0.60;;;0.60;;
12665;SDS011;58531;59.050;17.416;2023-06-10T13:31:49;0.60;;;0.60;;
12665;SDS011;58531;59.050;17.416;2023-06-10T13:34:16;0.40;;;0.40;;
12665;SDS011;58531;59.050;17.416;2023-06-10T13:36:43;0.73;;;0.73;;
12665;SDS011;58531;59.050;17.416;2023-06-10T13:39:10;0.97;;;0.63;;
12665;SDS011;58531;59.050;17.416;2023-06-10T13:41:38;1.00;;;0.90;;
12665;SDS011;58531;59.050;17.416;2023-06-10T13:44:06;0.60;;;0.60;;
12665;SDS011;58531;59.050;17.416;2023-06-10T13:46:33;1.53;;;0.50;;
12665;SDS011;58531;59.050;17.416;2023-06-10T13:49:01;0.97;;;0.60;;
12665;SDS011;58531;59.050;17.416;2023-06-10T13:51:28;1.03;;;0.60;;
12665;SDS011;58531;59.050;17.416;2023-06-10T13:53:55;2.17;;;0.70;;
12665;SDS011;58531;59.050;17.416;2023-06-10T13:56:22;0.70;;;0.70;;
12665;SDS011;58531;59.050;17.416;2023-06-10T13:58:49;0.70;;;0.70;;
12665;SDS011;58531;59.050;17.416;2023-06-10T14:01:15;0.60;;;0.60;;
12665;SDS011;58531;59.050;17.416;2023-06-10T14:03:42;0.60;;;0.60;;
12665;SDS011;58531;59.050;17.416;2023-06-10T14:06:10;0.90;;;0.70;;
12665;SDS011;58531;59.050;17.416;2023-06-10T14:08:43;0.70;;;0.60;;
12665;SDS011;58531;59.050;17.416;2023-06-10T14:11:10;0.70;;;0.63;;
12665;SDS011;58531;59.050;17.416;2023-06-10T14:13:37;0.50;;;0.50;;
12665;SDS011;58531;59.050;17.416;2023-06-10T14:16:04;0.53;;;0.53;;
12665;SDS011;58531;59.050;17.416;2023-06-10T14:18:31;0.77;;;0.60;;
12665;SDS011;58531;59.050;17.416;2023-06-10T14:20:58;2.10;;;0.60;;
12665;SDS011;58531;59.050;17.416;2023-06-10T14:23:26;0.80;;;0.73;;
12665;SDS011;58531;59.050;17.416;2023-06-10T14:25:53;1.20;;;0.70;;
12665;SDS011;58531;59.050;17.416;2023-06-10T14:28:20;1.77;;;0.60;;
12665;SDS011;58531;59.050;17.416;2023-06-10T14:30:47;0.87;;;0.70;;
12665;SDS011;58531;59.050;17.416;2023-06-10T14:33:14;1.47;;;0.70;;
12665;SDS011;58531;59.050;17.416;2023-06-10T14:35:41;1.00;;;0.70;;
12665;SDS011;58531;59.050;17.416;2023-06-10T14:38:09;0.70;;;0.70;;